sensor_id;sensor_type;location;lat;lon;timestamp;pressure;altitude;pressure_sealevel;temperature;humidity
14885;BME280;7534;50.762;7.000;2023-05-02T00:00:32;87827.97;;;-143.16;69.06
14885;BME280;7534;50.762;7.000;2023-05-02T00:02:59;87733.09;;;-143.16;68.91
14885;BME280;7534;50.762;7.000;2023-05-02T00:05:25;87801.72;;;-143.16;68.43
14885;BME280;7534;50.762;7.000;2023-05-02T00:07:51;87757.31;;;-143.16;68.23
14885;BME280;7534;50.762;7.000;2023-05-02T00:10:18;87755.31;;;-143.16;68.03
14885;BME280;7534;50.762;7.000;2023-05-02T00:12:44;87777.50;;;-143.16;68.06
14885;BME280;7534;50.762;7.000;2023-05-02T00:15:09;87755.31;;;-143.16;68.13
14885;BME280;7534;50.762;7.000;2023-05-02T00:17:39;87813.84;;;-143.16;67.99
14885;BME280;7534;50.762;7.000;2023-05-02T00:20:05;87803.75;;;-143.16;67.98
14885;BME280;7534;50.762;7.000;2023-05-02T00:22:34;87749.25;;;-143.16;67.59
14885;BME280;7534;50.762;7.000;2023-05-02T00:25:00;87761.34;;;-143.16;67.68
14885;BME280;7534;50.762;7.000;2023-05-02T00:27:26;87789.63;;;-143.16;67.76
14885;BME280;7534;50.762;7.000;2023-05-02T00:29:52;87813.84;;;-143.16;67.50
14885;BME280;7534;50.762;7.000;2023-05-02T00:32:18;87823.91;;;-143.16;67.18
14885;BME280;7534;50.762;7.000;2023-05-02T00:34:44;87761.34;;;-143.16;67.02
14885;BME280;7534;50.762;7.000;2023-05-02T00:37:09;87797.69;;;-143.16;66.85
14885;BME280;7534;50.762;7.000;2023-05-02T00:39:36;87797.69;;;-143.16;66.85
14885;BME280;7534;50.762;7.000;2023-05-02T00:42:03;87793.66;;;-143.16;66.83
14885;BME280;7534;50.762;7.000;2023-05-02T00:44:28;87805.75;;;-143.16;66.81
14885;BME280;7534;50.762;7.000;2023-05-02T00:46:55;87813.84;;;-143.16;67.06
14885;BME280;7534;50.762;7.000;2023-05-02T00:49:21;87781.53;;;-143.16;66.77
14885;BME280;7534;50.762;7.000;2023-05-02T00:51:47;87805.75;;;-143.16;67.33
14885;BME280;7534;50.762;7.000;2023-05-02T00:54:13;87777.50;;;-143.16;67.08
14885;BME280;7534;50.762;7.000;2023-05-02T00:56:39;87787.59;;;-143.16;67.02
14885;BME280;7534;50.762;7.000;2023-05-02T00:59:07;87854.19;;;-143.16;67.22
14885;BME280;7534;50.762;7.000;2023-05-02T01:01:54;87817.88;;;-143.16;67.74
14885;BME280;7534;50.762;7.000;2023-05-02T01:05:09;87852.19;;;-143.16;68.18
14885;BME280;7534;50.762;7.000;2023-05-02T01:13:32;87878.41;;;-143.16;68.83
14885;BME280;7534;50.762;7.000;2023-05-02T01:16:02;87862.28;;;-143.16;69.23
14885;BME280;7534;50.762;7.000;2023-05-02T01:18:34;87898.59;;;-143.16;69.40
14885;BME280;7534;50.762;7.000;2023-05-02T01:21:06;87902.66;;;-143.16;69.55
14885;BME280;7534;50.762;7.000;2023-05-02T01:24:21;87916.78;;;-143.16;70.07
14885;BME280;7534;50.762;7.000;2023-05-02T01:27:17;87894.56;;;-143.16;69.94
14885;BME280;7534;50.762;7.000;2023-05-02T01:29:50;87924.84;;;-143.16;69.37
14885;BME280;7534;50.762;7.000;2023-05-02T01:32:20;87922.81;;;-143.16;69.34
14885;BME280;7534;50.762;7.000;2023-05-02T01:34:51;87878.41;;;-143.16;69.14
14885;BME280;7534;50.762;7.000;2023-05-02T01:37:21;87848.16;;;-143.16;68.94
14885;BME280;7534;50.762;7.000;2023-05-02T01:39:49;87870.34;;;-143.16;68.93
14885;BME280;7534;50.762;7.000;2023-05-02T01:42:18;87870.34;;;-143.16;68.87
14885;BME280;7534;50.762;7.000;2023-05-02T01:44:46;87876.41;;;-143.16;68.94
14885;BME280;7534;50.762;7.000;2023-05-02T01:47:12;87898.59;;;-143.16;69.20
14885;BME280;7534;50.762;7.000;2023-05-02T01:49:41;87910.72;;;-143.16;69.36
14885;BME280;7534;50.762;7.000;2023-05-02T01:52:10;87896.59;;;-143.16;69.32
14885;BME280;7534;50.762;7.000;2023-05-02T01:54:39;87876.41;;;-143.16;69.58
14885;BME280;7534;50.762;7.000;2023-05-02T01:57:08;87898.59;;;-143.16;69.43
14885;BME280;7534;50.762;7.000;2023-05-02T01:59:38;87922.81;;;-143.16;69.45
14885;BME280;7534;50.762;7.000;2023-05-02T02:02:06;87888.50;;;-143.16;69.81
14885;BME280;7534;50.762;7.000;2023-05-02T02:04:36;87914.75;;;-143.16;69.68
14885;BME280;7534;50.762;7.000;2023-05-02T02:07:12;87918.78;;;-143.16;70.02
14885;BME280;7534;50.762;7.000;2023-05-02T02:09:38;87949.06;;;-143.16;70.09
14885;BME280;7534;50.762;7.000;2023-05-02T02:15:12;87930.91;;;-143.16;70.26
14885;BME280;7534;50.762;7.000;2023-05-02T02:18:04;87938.97;;;-143.16;70.28
14885;BME280;7534;50.762;7.000;2023-05-02T02:20:35;87941.00;;;-143.16;70.79
14885;BME280;7534;50.762;7.000;2023-05-02T02:23:05;87906.69;;;-143.16;71.03
14885;BME280;7534;50.762;7.000;2023-05-02T02:25:33;87947.06;;;-143.16;71.53
14885;BME280;7534;50.762;7.000;2023-05-02T02:28:00;87938.97;;;-143.16;71.92
14885;BME280;7534;50.762;7.000;2023-05-02T02:30:26;87955.13;;;-143.16;72.06
14885;BME280;7534;50.762;7.000;2023-05-02T02:32:52;87971.28;;;-143.16;72.02
14885;BME280;7534;50.762;7.000;2023-05-02T02:35:18;87987.44;;;-143.16;72.18
14885;BME280;7534;50.762;7.000;2023-05-02T02:38:27;87912.75;;;-143.16;71.77
14885;BME280;7534;50.762;7.000;2023-05-02T02:41:15;87902.66;;;-143.16;71.80
14885;BME280;7534;50.762;7.000;2023-05-02T02:44:04;87963.19;;;-143.16;71.68
14885;BME280;7534;50.762;7.000;2023-05-02T02:47:20;87967.25;;;-143.16;71.45
14885;BME280;7534;50.762;7.000;2023-05-02T02:50:19;87936.97;;;-143.16;71.39
14885;BME280;7534;50.762;7.000;2023-05-02T02:52:58;87896.59;;;-143.16;70.92
14885;BME280;7534;50.762;7.000;2023-05-02T02:55:52;88011.66;;;-143.16;71.19
14885;BME280;7534;50.762;7.000;2023-05-02T02:58:53;87938.97;;;-143.16;70.59
14885;BME280;7534;50.762;7.000;2023-05-02T03:01:23;87910.72;;;-143.16;70.54
14885;BME280;7534;50.762;7.000;2023-05-02T03:03:50;87943.00;;;-143.16;70.43
14885;BME280;7534;50.762;7.000;2023-05-02T03:06:18;87920.81;;;-143.16;70.25
14885;BME280;7534;50.762;7.000;2023-05-02T03:08:44;87955.13;;;-143.16;70.21
14885;BME280;7534;50.762;7.000;2023-05-02T03:11:11;87943.00;;;-143.16;70.52
14885;BME280;7534;50.762;7.000;2023-05-02T03:13:36;87961.19;;;-143.16;70.59
14885;BME280;7534;50.762;7.000;2023-05-02T03:16:37;87949.06;;;-143.16;70.66
14885;BME280;7534;50.762;7.000;2023-05-02T03:19:04;87922.81;;;-143.16;70.51
14885;BME280;7534;50.762;7.000;2023-05-02T03:21:30;87975.31;;;-143.16;71.02
14885;BME280;7534;50.762;7.000;2023-05-02T03:24:01;87985.41;;;-143.16;70.98
14885;BME280;7534;50.762;7.000;2023-05-02T03:26:27;87957.16;;;-143.16;70.95
14885;BME280;7534;50.762;7.000;2023-05-02T03:28:54;87916.78;;;-143.16;70.15
14885;BME280;7534;50.762;7.000;2023-05-02T03:31:20;87971.28;;;-143.16;70.25
14885;BME280;7534;50.762;7.000;2023-05-02T03:33:47;87936.97;;;-143.16;70.26
14885;BME280;7534;50.762;7.000;2023-05-02T03:36:14;87981.38;;;-143.16;70.46
14885;BME280;7534;50.762;7.000;2023-05-02T03:38:41;87949.06;;;-143.16;70.48
14885;BME280;7534;50.762;7.000;2023-05-02T03:41:06;87941.00;;;-143.16;70.43
14885;BME280;7534;50.762;7.000;2023-05-02T03:43:32;87949.06;;;-143.16;70.23
14885;BME280;7534;50.762;7.000;2023-05-02T03:46:08;87947.06;;;-143.16;70.25
14885;BME280;7534;50.762;7.000;2023-05-02T03:48:34;87951.09;;;-143.16;70.21
14885;BME280;7534;50.762;7.000;2023-05-02T03:51:03;87943.00;;;-143.16;70.44
14885;BME280;7534;50.762;7.000;2023-05-02T03:53:30;88001.56;;;-143.16;70.17
14885;BME280;7534;50.762;7.000;2023-05-02T03:55:56;87981.38;;;-143.16;69.82
14885;BME280;7534;50.762;7.000;2023-05-02T03:58:22;87951.09;;;-143.16;69.96
14885;BME280;7534;50.762;7.000;2023-05-02T04:00:50;87900.63;;;-143.16;69.69
14885;BME280;7534;50.762;7.000;2023-05-02T04:03:17;87955.13;;;-143.16;70.07
14885;BME280;7534;50.762;7.000;2023-05-02T04:05:42;87987.44;;;-143.16;69.57
14885;BME280;7534;50.762;7.000;2023-05-02T04:08:08;87934.94;;;-143.16;69.37
14885;BME280;7534;50.762;7.000;2023-05-02T04:10:35;87926.88;;;-143.16;69.03
14885;BME280;7534;50.762;7.000;2023-05-02T04:13:00;87908.69;;;-143.16;69.22
14885;BME280;7534;50.762;7.000;2023-05-02T04:15:28;87926.88;;;-143.16;69.07
14885;BME280;7534;50.762;7.000;2023-05-02T04:17:54;87932.91;;;-143.16;69.08
14885;BME280;7534;50.762;7.000;2023-05-02T04:20:19;87922.81;;;-143.16;68.91
14885;BME280;7534;50.762;7.000;2023-05-02T04:22:45;87924.84;;;-143.16;69.01
14885;BME280;7534;50.762;7.000;2023-05-02T04:25:12;87890.53;;;-143.16;68.47
14885;BME280;7534;50.762;7.000;2023-05-02T04:27:38;87920.81;;;-143.16;68.69
14885;BME280;7534;50.762;7.000;2023-05-02T04:30:04;87920.81;;;-143.16;68.56
14885;BME280;7534;50.762;7.000;2023-05-02T04:32:30;87938.97;;;-143.16;68.50
14885;BME280;7534;50.762;7.000;2023-05-02T04:34:56;87922.81;;;-143.16;68.35
14885;BME280;7534;50.762;7.000;2023-05-02T04:37:22;87902.66;;;-143.16;68.43
14885;BME280;7534;50.762;7.000;2023-05-02T04:39:47;87936.97;;;-143.16;68.60
14885;BME280;7534;50.762;7.000;2023-05-02T04:42:13;87912.75;;;-143.16;68.27
14885;BME280;7534;50.762;7.000;2023-05-02T04:44:39;87890.53;;;-143.16;68.41
14885;BME280;7534;50.762;7.000;2023-05-02T04:47:05;87874.38;;;-143.16;68.11
14885;BME280;7534;50.762;7.000;2023-05-02T04:49:30;87938.97;;;-143.16;68.47
14885;BME280;7534;50.762;7.000;2023-05-02T04:51:56;87908.69;;;-143.16;68.73
14885;BME280;7534;50.762;7.000;2023-05-02T04:54:22;87934.94;;;-143.16;68.78
14885;BME280;7534;50.762;7.000;2023-05-02T04:56:48;87916.78;;;-143.16;68.78
14885;BME280;7534;50.762;7.000;2023-05-02T04:59:14;87874.38;;;-143.16;68.61
14885;BME280;7534;50.762;7.000;2023-05-02T05:01:39;87930.91;;;-143.16;68.91
14885;BME280;7534;50.762;7.000;2023-05-02T05:04:05;87898.59;;;-143.16;68.82
14885;BME280;7534;50.762;7.000;2023-05-02T05:06:31;87902.66;;;-143.16;68.93
14885;BME280;7534;50.762;7.000;2023-05-02T05:08:57;87910.72;;;-143.16;68.94
14885;BME280;7534;50.762;7.000;2023-05-02T05:11:22;87914.75;;;-143.16;69.10
14885;BME280;7534;50.762;7.000;2023-05-02T05:13:48;87870.34;;;-143.16;68.85
14885;BME280;7534;50.762;7.000;2023-05-02T05:16:14;87825.94;;;-143.16;68.89
14885;BME280;7534;50.762;7.000;2023-05-02T05:18:40;87912.75;;;-143.16;69.18
14885;BME280;7534;50.762;7.000;2023-05-02T05:21:07;88041.94;;;-143.16;69.49
14885;BME280;7534;50.762;7.000;2023-05-02T05:23:33;87876.41;;;-143.16;70.07
14885;BME280;7534;50.762;7.000;2023-05-02T05:26:14;87936.97;;;-143.16;70.97
14885;BME280;7534;50.762;7.000;2023-05-02T05:28:41;87910.72;;;-143.16;71.21
14885;BME280;7534;50.762;7.000;2023-05-02T05:31:09;87926.88;;;-143.16;71.52
14885;BME280;7534;50.762;7.000;2023-05-02T05:33:36;87985.41;;;-143.16;71.51
14885;BME280;7534;50.762;7.000;2023-05-02T05:36:12;87926.88;;;-143.16;71.59
14885;BME280;7534;50.762;7.000;2023-05-02T05:38:39;87898.59;;;-143.16;72.24
14885;BME280;7534;50.762;7.000;2023-05-02T05:41:05;87870.34;;;-143.16;72.55
14885;BME280;7534;50.762;7.000;2023-05-02T05:43:32;87928.88;;;-143.16;72.31
14885;BME280;7534;50.762;7.000;2023-05-02T05:45:58;87860.25;;;-143.16;71.71
14885;BME280;7534;50.762;7.000;2023-05-02T05:48:24;87918.78;;;-143.16;71.08
14885;BME280;7534;50.762;7.000;2023-05-02T05:50:50;87856.22;;;-143.16;70.91
14885;BME280;7534;50.762;7.000;2023-05-02T05:53:17;87842.09;;;-143.16;70.25
14885;BME280;7534;50.762;7.000;2023-05-02T05:55:44;87947.06;;;-143.16;68.96
14885;BME280;7534;50.762;7.000;2023-05-02T05:58:10;87852.19;;;-143.16;68.26
14885;BME280;7534;50.762;7.000;2023-05-02T06:00:37;87854.19;;;-143.16;68.25
14885;BME280;7534;50.762;7.000;2023-05-02T06:03:04;87850.16;;;-143.16;68.00
14885;BME280;7534;50.762;7.000;2023-05-02T06:05:31;87850.16;;;-143.16;67.74
14885;BME280;7534;50.762;7.000;2023-05-02T06:07:57;87904.66;;;-143.16;67.39
14885;BME280;7534;50.762;7.000;2023-05-02T06:10:38;87862.28;;;-143.16;67.06
14885;BME280;7534;50.762;7.000;2023-05-02T06:13:04;87858.25;;;-143.16;66.75
14885;BME280;7534;50.762;7.000;2023-05-02T06:15:32;87894.56;;;-143.16;66.68
14885;BME280;7534;50.762;7.000;2023-05-02T06:17:59;87876.41;;;-143.16;66.58
14885;BME280;7534;50.762;7.000;2023-05-02T06:20:25;87914.75;;;-143.16;66.78
14885;BME280;7534;50.762;7.000;2023-05-02T06:22:51;87872.38;;;-143.16;66.03
14885;BME280;7534;50.762;7.000;2023-05-02T06:25:16;87864.28;;;-143.16;66.25
14885;BME280;7534;50.762;7.000;2023-05-02T06:27:42;87943.00;;;-143.16;65.98
14885;BME280;7534;50.762;7.000;2023-05-02T06:30:08;87850.16;;;-143.16;65.70
14885;BME280;7534;50.762;7.000;2023-05-02T06:32:34;87860.25;;;-143.16;65.35
14885;BME280;7534;50.762;7.000;2023-05-02T06:34:59;87827.97;;;-143.16;64.88
14885;BME280;7534;50.762;7.000;2023-05-02T06:37:25;87838.06;;;-143.16;64.22
14885;BME280;7534;50.762;7.000;2023-05-02T06:39:51;87775.47;;;-143.16;63.85
14885;BME280;7534;50.762;7.000;2023-05-02T06:42:17;87807.78;;;-143.16;63.43
14885;BME280;7534;50.762;7.000;2023-05-02T06:44:42;87805.75;;;-143.16;62.76
14885;BME280;7534;50.762;7.000;2023-05-02T06:47:08;87751.25;;;-143.16;62.30
14885;BME280;7534;50.762;7.000;2023-05-02T06:49:33;87739.16;;;-143.16;62.27
14885;BME280;7534;50.762;7.000;2023-05-02T06:51:59;87743.19;;;-143.16;62.22
14885;BME280;7534;50.762;7.000;2023-05-02T06:54:25;87759.34;;;-143.16;62.92
14885;BME280;7534;50.762;7.000;2023-05-02T06:56:51;87779.53;;;-143.16;63.11
14885;BME280;7534;50.762;7.000;2023-05-02T06:59:16;87781.53;;;-143.16;63.61
14885;BME280;7534;50.762;7.000;2023-05-02T07:01:54;87836.03;;;-143.16;64.21
14885;BME280;7534;50.762;7.000;2023-05-02T07:04:20;87809.78;;;-143.16;64.48
14885;BME280;7534;50.762;7.000;2023-05-02T07:06:46;87797.69;;;-143.16;64.54
14885;BME280;7534;50.762;7.000;2023-05-02T07:09:12;87809.78;;;-143.16;63.78
14885;BME280;7534;50.762;7.000;2023-05-02T07:11:37;87797.69;;;-143.16;64.39
14885;BME280;7534;50.762;7.000;2023-05-02T07:14:03;87827.97;;;-143.16;65.53
14885;BME280;7534;50.762;7.000;2023-05-02T07:16:30;87809.78;;;-143.16;65.62
14885;BME280;7534;50.762;7.000;2023-05-02T07:18:55;87801.72;;;-143.16;65.67
14885;BME280;7534;50.762;7.000;2023-05-02T07:21:21;87807.78;;;-143.16;66.33
14885;BME280;7534;50.762;7.000;2023-05-02T07:23:47;87809.78;;;-143.16;66.04
14885;BME280;7534;50.762;7.000;2023-05-02T07:26:13;87755.31;;;-143.16;65.40
14885;BME280;7534;50.762;7.000;2023-05-02T07:28:38;87793.66;;;-143.16;65.35
14885;BME280;7534;50.762;7.000;2023-05-02T07:31:04;87741.16;;;-143.16;65.21
14885;BME280;7534;50.762;7.000;2023-05-02T07:33:30;87745.22;;;-143.16;64.39
14885;BME280;7534;50.762;7.000;2023-05-02T07:35:56;87723.00;;;-143.16;63.83
14885;BME280;7534;50.762;7.000;2023-05-02T07:38:21;87747.22;;;-143.16;63.25
14885;BME280;7534;50.762;7.000;2023-05-02T07:40:47;87718.97;;;-143.16;63.18
14885;BME280;7534;50.762;7.000;2023-05-02T07:43:13;87714.94;;;-143.16;62.55
14885;BME280;7534;50.762;7.000;2023-05-02T07:45:40;87729.06;;;-143.16;62.38
14885;BME280;7534;50.762;7.000;2023-05-02T07:48:06;87700.81;;;-143.16;62.47
14885;BME280;7534;50.762;7.000;2023-05-02T07:50:31;87656.41;;;-143.16;61.81
14885;BME280;7534;50.762;7.000;2023-05-02T07:52:57;87620.06;;;-143.16;61.19
14885;BME280;7534;50.762;7.000;2023-05-02T07:55:23;87634.19;;;-143.16;60.56
14885;BME280;7534;50.762;7.000;2023-05-02T07:57:51;87612.00;;;-143.16;60.08
14885;BME280;7534;50.762;7.000;2023-05-02T08:00:17;87620.06;;;-143.16;59.63
14885;BME280;7534;50.762;7.000;2023-05-02T08:02:43;87636.22;;;-143.16;59.90
14885;BME280;7534;50.762;7.000;2023-05-02T08:05:10;87652.38;;;-143.16;60.54
14885;BME280;7534;50.762;7.000;2023-05-02T08:07:36;87674.56;;;-143.16;61.45
14885;BME280;7534;50.762;7.000;2023-05-02T08:10:02;87716.94;;;-143.16;62.68
14885;BME280;7534;50.762;7.000;2023-05-02T08:12:28;87801.72;;;-143.16;64.18
14885;BME280;7534;50.762;7.000;2023-05-02T08:14:53;87791.63;;;-143.16;65.09
14885;BME280;7534;50.762;7.000;2023-05-02T08:17:37;87755.31;;;-143.16;63.87
14885;BME280;7534;50.762;7.000;2023-05-02T08:20:04;87674.56;;;-143.16;61.97
14885;BME280;7534;50.762;7.000;2023-05-02T08:22:31;87674.56;;;-143.16;60.14
14885;BME280;7534;50.762;7.000;2023-05-02T08:24:56;87656.41;;;-143.16;59.05
14885;BME280;7534;50.762;7.000;2023-05-02T08:27:22;87690.72;;;-143.16;58.09
14885;BME280;7534;50.762;7.000;2023-05-02T08:29:48;87664.47;;;-143.16;58.08
14885;BME280;7534;50.762;7.000;2023-05-02T08:32:13;87660.44;;;-143.16;57.90
14885;BME280;7534;50.762;7.000;2023-05-02T08:34:39;87716.94;;;-143.16;58.06
14885;BME280;7534;50.762;7.000;2023-05-02T08:37:09;87601.91;;;-143.16;57.48
14885;BME280;7534;50.762;7.000;2023-05-02T08:39:36;87636.22;;;-143.16;56.97
14885;BME280;7534;50.762;7.000;2023-05-02T08:42:08;87607.97;;;-143.16;56.88
14885;BME280;7534;50.762;7.000;2023-05-02T08:44:34;87587.78;;;-143.16;55.92
14885;BME280;7534;50.762;7.000;2023-05-02T08:47:01;87591.81;;;-143.16;55.58
14885;BME280;7534;50.762;7.000;2023-05-02T08:49:30;87569.59;;;-143.16;55.60
14885;BME280;7534;50.762;7.000;2023-05-02T08:51:59;87587.78;;;-143.16;55.74
14885;BME280;7534;50.762;7.000;2023-05-02T08:54:25;87517.13;;;-143.16;54.91
14885;BME280;7534;50.762;7.000;2023-05-02T08:56:55;87599.88;;;-143.16;54.46
14885;BME280;7534;50.762;7.000;2023-05-02T08:59:20;87482.81;;;-143.16;53.30
14885;BME280;7534;50.762;7.000;2023-05-02T09:01:51;87430.34;;;-143.16;52.33
14885;BME280;7534;50.762;7.000;2023-05-02T09:04:25;87444.47;;;-143.16;51.73
14885;BME280;7534;50.762;7.000;2023-05-02T09:06:55;87474.75;;;-143.16;51.24
14885;BME280;7534;50.762;7.000;2023-05-02T09:09:20;87458.59;;;-143.16;50.21
14885;BME280;7534;50.762;7.000;2023-05-02T09:11:48;87454.56;;;-143.16;50.78
14885;BME280;7534;50.762;7.000;2023-05-02T09:14:15;87563.56;;;-143.16;50.13
14885;BME280;7534;50.762;7.000;2023-05-02T09:16:41;87440.44;;;-143.16;50.18
14885;BME280;7534;50.762;7.000;2023-05-02T09:19:08;87389.97;;;-143.16;49.52
14885;BME280;7534;50.762;7.000;2023-05-02T09:21:38;87392.00;;;-143.16;48.54
14885;BME280;7534;50.762;7.000;2023-05-02T09:24:33;87260.81;;;-143.16;46.59
14885;BME280;7534;50.762;7.000;2023-05-02T09:27:02;87198.25;;;-143.16;45.41
14885;BME280;7534;50.762;7.000;2023-05-02T09:29:30;87194.22;;;-143.16;44.95
14885;BME280;7534;50.762;7.000;2023-05-02T09:32:01;87143.78;;;-143.16;44.43
14885;BME280;7534;50.762;7.000;2023-05-02T09:34:28;87224.50;;;-143.16;44.40
14885;BME280;7534;50.762;7.000;2023-05-02T09:36:55;87258.81;;;-143.16;45.94
14885;BME280;7534;50.762;7.000;2023-05-02T09:39:27;87321.38;;;-143.16;47.00
14885;BME280;7534;50.762;7.000;2023-05-02T09:41:54;87357.69;;;-143.16;47.31
14885;BME280;7534;50.762;7.000;2023-05-02T09:44:24;87347.59;;;-143.16;47.54
14885;BME280;7534;50.762;7.000;2023-05-02T09:46:53;87402.09;;;-143.16;46.85
14885;BME280;7534;50.762;7.000;2023-05-02T09:49:42;87462.63;;;-143.16;47.26
14885;BME280;7534;50.762;7.000;2023-05-02T09:52:14;87498.97;;;-143.16;46.85
14885;BME280;7534;50.762;7.000;2023-05-02T09:54:40;87470.72;;;-143.16;47.07
14885;BME280;7534;50.762;7.000;2023-05-02T09:57:07;87474.75;;;-143.16;46.19
14885;BME280;7534;50.762;7.000;2023-05-02T09:59:33;87474.75;;;-143.16;46.25
14885;BME280;7534;50.762;7.000;2023-05-02T10:02:02;87464.66;;;-143.16;46.33
14885;BME280;7534;50.762;7.000;2023-05-02T10:04:30;87466.69;;;-143.16;47.31
14885;BME280;7534;50.762;7.000;2023-05-02T10:06:57;87444.47;;;-143.16;47.02
14885;BME280;7534;50.762;7.000;2023-05-02T10:09:25;87446.50;;;-143.16;47.17
14885;BME280;7534;50.762;7.000;2023-05-02T10:11:54;87438.41;;;-143.16;46.73
14885;BME280;7534;50.762;7.000;2023-05-02T10:14:23;87446.50;;;-143.16;46.21
14885;BME280;7534;50.762;7.000;2023-05-02T10:17:04;87444.47;;;-143.16;45.18
14885;BME280;7534;50.762;7.000;2023-05-02T10:20:05;87418.25;;;-143.16;45.22
14885;BME280;7534;50.762;7.000;2023-05-02T10:22:35;87400.06;;;-143.16;45.12
14885;BME280;7534;50.762;7.000;2023-05-02T10:25:02;87400.06;;;-143.16;44.69
14885;BME280;7534;50.762;7.000;2023-05-02T10:27:32;87400.06;;;-143.16;44.29
14885;BME280;7534;50.762;7.000;2023-05-02T10:29:59;87389.97;;;-143.16;44.93
14885;BME280;7534;50.762;7.000;2023-05-02T10:32:28;87398.06;;;-143.16;45.21
14885;BME280;7534;50.762;7.000;2023-05-02T10:34:56;87272.94;;;-143.16;43.96
14885;BME280;7534;50.762;7.000;2023-05-02T10:37:24;87272.94;;;-143.16;42.86
14885;BME280;7534;50.762;7.000;2023-05-02T10:39:52;87196.25;;;-143.16;42.11
14885;BME280;7534;50.762;7.000;2023-05-02T10:42:20;87119.56;;;-143.16;41.59
14885;BME280;7534;50.762;7.000;2023-05-02T10:44:46;87085.25;;;-143.16;40.42
14885;BME280;7534;50.762;7.000;2023-05-02T10:47:25;87123.59;;;-143.16;40.50
14885;BME280;7534;50.762;7.000;2023-05-02T10:49:55;87113.50;;;-143.16;40.87
14885;BME280;7534;50.762;7.000;2023-05-02T10:52:39;87172.03;;;-143.16;40.46
14885;BME280;7534;50.762;7.000;2023-05-02T10:55:20;87101.41;;;-143.16;39.76
14885;BME280;7534;50.762;7.000;2023-05-02T11:00:32;86921.78;;;-143.16;38.78
14885;BME280;7534;50.762;7.000;2023-05-02T11:03:00;86941.97;;;-143.16;37.63
14885;BME280;7534;50.762;7.000;2023-05-02T11:05:26;86915.75;;;-143.16;38.16
14885;BME280;7534;50.762;7.000;2023-05-02T11:10:40;86923.81;;;-143.16;37.72
14885;BME280;7534;50.762;7.000;2023-05-02T11:13:06;87073.16;;;-143.16;38.00
14885;BME280;7534;50.762;7.000;2023-05-02T11:18:02;87042.88;;;-143.16;38.06
14885;BME280;7534;50.762;7.000;2023-05-02T11:20:29;87014.63;;;-143.16;38.37
14885;BME280;7534;50.762;7.000;2023-05-02T11:25:58;87061.03;;;-143.16;38.41
14885;BME280;7534;50.762;7.000;2023-05-02T11:31:03;87089.28;;;-143.16;38.54
14885;BME280;7534;50.762;7.000;2023-05-02T11:33:29;87135.69;;;-143.16;38.91
14885;BME280;7534;50.762;7.000;2023-05-02T11:35:55;87182.13;;;-143.16;38.98
14885;BME280;7534;50.762;7.000;2023-05-02T11:38:27;87172.03;;;-143.16;38.78
14885;BME280;7534;50.762;7.000;2023-05-02T11:40:59;87208.34;;;-143.16;39.57
14885;BME280;7534;50.762;7.000;2023-05-02T11:43:28;87184.13;;;-143.16;39.04
14885;BME280;7534;50.762;7.000;2023-05-02T11:45:55;87157.91;;;-143.16;38.79
14885;BME280;7534;50.762;7.000;2023-05-02T11:48:22;87157.91;;;-143.16;38.39
14885;BME280;7534;50.762;7.000;2023-05-02T11:50:57;87121.56;;;-143.16;38.49
14885;BME280;7534;50.762;7.000;2023-05-02T11:53:27;87091.31;;;-143.16;36.93
14885;BME280;7534;50.762;7.000;2023-05-02T11:56:02;87075.16;;;-143.16;37.42
14885;BME280;7534;50.762;7.000;2023-05-02T11:58:30;87057.00;;;-143.16;36.98
14885;BME280;7534;50.762;7.000;2023-05-02T12:01:10;87016.63;;;-143.16;37.53
14885;BME280;7534;50.762;7.000;2023-05-02T12:03:37;87004.53;;;-143.16;37.81
14885;BME280;7534;50.762;7.000;2023-05-02T12:06:15;87018.66;;;-143.16;37.06
14885;BME280;7534;50.762;7.000;2023-05-02T12:08:43;86885.47;;;-143.16;36.98
14885;BME280;7534;50.762;7.000;2023-05-02T12:11:12;86853.19;;;-143.16;35.90
14885;BME280;7534;50.762;7.000;2023-05-02T12:13:49;86833.00;;;-143.16;35.00
14885;BME280;7534;50.762;7.000;2023-05-02T12:16:16;86798.69;;;-143.16;34.78
14885;BME280;7534;50.762;7.000;2023-05-02T12:18:42;86788.63;;;-143.16;34.42
14885;BME280;7534;50.762;7.000;2023-05-02T12:21:08;86808.78;;;-143.16;34.22
14885;BME280;7534;50.762;7.000;2023-05-02T12:23:40;86841.06;;;-143.16;34.27
14885;BME280;7534;50.762;7.000;2023-05-02T12:26:26;86950.03;;;-143.16;34.82
14885;BME280;7534;50.762;7.000;2023-05-02T12:28:57;87054.97;;;-143.16;35.43
14885;BME280;7534;50.762;7.000;2023-05-02T12:31:24;87004.53;;;-143.16;36.15
14885;BME280;7534;50.762;7.000;2023-05-02T12:33:52;87095.34;;;-143.16;36.85
14885;BME280;7534;50.762;7.000;2023-05-02T12:36:22;87063.06;;;-143.16;37.49
14885;BME280;7534;50.762;7.000;2023-05-02T12:38:56;87012.59;;;-143.16;36.84
14885;BME280;7534;50.762;7.000;2023-05-02T12:41:37;87081.22;;;-143.16;36.09
14885;BME280;7534;50.762;7.000;2023-05-02T12:44:06;86990.41;;;-143.16;36.08
14885;BME280;7534;50.762;7.000;2023-05-02T12:46:32;87044.88;;;-143.16;35.81
14885;BME280;7534;50.762;7.000;2023-05-02T12:49:06;87038.84;;;-143.16;35.91
14885;BME280;7534;50.762;7.000;2023-05-02T12:51:34;87061.03;;;-143.16;36.47
14885;BME280;7534;50.762;7.000;2023-05-02T12:54:01;87107.44;;;-143.16;36.44
14885;BME280;7534;50.762;7.000;2023-05-02T12:56:28;87020.69;;;-143.16;35.98
14885;BME280;7534;50.762;7.000;2023-05-02T12:58:57;86982.34;;;-143.16;35.62
14885;BME280;7534;50.762;7.000;2023-05-02T13:01:26;86960.13;;;-143.16;34.57
14885;BME280;7534;50.762;7.000;2023-05-02T13:03:52;86903.63;;;-143.16;34.46
14885;BME280;7534;50.762;7.000;2023-05-02T13:06:18;86950.03;;;-143.16;34.10
14885;BME280;7534;50.762;7.000;2023-05-02T13:08:44;86877.41;;;-143.16;35.00
14885;BME280;7534;50.762;7.000;2023-05-02T13:11:09;86881.44;;;-143.16;33.95
14885;BME280;7534;50.762;7.000;2023-05-02T13:13:35;86784.56;;;-143.16;35.05
14885;BME280;7534;50.762;7.000;2023-05-02T13:16:01;86863.28;;;-143.16;33.27
14885;BME280;7534;50.762;7.000;2023-05-02T13:18:27;86851.16;;;-143.16;33.78
14885;BME280;7534;50.762;7.000;2023-05-02T13:20:53;86919.78;;;-143.16;33.96
14885;BME280;7534;50.762;7.000;2023-05-02T13:23:19;86883.44;;;-143.16;34.42